createdAt,value
2019-04-22T00:01:31.202Z,3.83
2019-04-22T00:04:06.647Z,3.90
2019-04-22T00:06:58.004Z,3.73
2019-04-22T00:09:44.026Z,3.60
2019-04-22T00:12:07.686Z,3.57
2019-04-22T00:14:35.097Z,3.77
2019-04-22T00:17:18.488Z,3.53
2019-04-22T00:19:52.078Z,3.47
2019-04-22T00:24:44.828Z,3.80
2019-04-22T00:27:28.255Z,3.80
2019-04-22T00:32:43.340Z,3.60
2019-04-22T00:35:19.507Z,3.40
2019-04-22T00:37:59.770Z,3.40
2019-04-22T00:40:30.604Z,3.90
2019-04-22T00:42:58.782Z,3.20
2019-04-22T00:45:34.463Z,3.50
2019-04-22T00:48:09.242Z,3.60
2019-04-22T00:50:40.254Z,3.10
2019-04-22T00:53:10.314Z,3.53
2019-04-22T00:56:00.564Z,3.83
2019-04-22T00:58:36.470Z,3.37
2019-04-22T01:01:12.519Z,3.60
2019-04-22T01:03:42.743Z,3.43
2019-04-22T01:06:13.119Z,3.17
2019-04-22T01:08:51.391Z,2.80
2019-04-22T01:11:21.460Z,3.20
2019-04-22T01:13:45.571Z,3.23
2019-04-22T01:18:55.514Z,3.17
2019-04-22T01:21:28.769Z,3.20
2019-04-22T01:23:59.825Z,2.93
2019-04-22T01:26:25.344Z,3.40
2019-04-22T01:29:00.946Z,3.23
2019-04-22T01:31:25.936Z,3.23
2019-04-22T01:34:08.282Z,3.57
2019-04-22T01:36:51.601Z,3.30
2019-04-22T01:39:25.092Z,2.80
2019-04-22T01:42:00.558Z,3.57
2019-04-22T01:44:34.461Z,3.20
2019-04-22T01:47:08.141Z,3.07
2019-04-22T01:49:38.259Z,3.30
2019-04-22T01:52:11.470Z,3.10
2019-04-22T01:54:42.681Z,3.20
2019-04-22T01:57:05.001Z,3.90
2019-04-22T01:59:35.783Z,3.40
2019-04-22T02:02:19.050Z,3.57
2019-04-22T02:04:53.598Z,3.27
2019-04-22T02:07:26.268Z,3.57
2019-04-22T02:09:56.149Z,3.13
2019-04-22T02:12:32.041Z,3.60
2019-04-22T02:15:09.215Z,3.40
2019-04-22T02:17:36.908Z,3.63
2019-04-22T02:20:12.343Z,3.00
2019-04-22T02:23:40.229Z,3.33
2019-04-22T02:25:51.050Z,3.57
2019-04-22T02:28:28.048Z,3.53
2019-04-22T02:31:18.756Z,3.20
2019-04-22T02:33:58.552Z,3.30
2019-04-22T02:36:16.656Z,3.37
2019-04-22T02:38:59.067Z,3.17
2019-04-22T02:44:06.621Z,3.67
2019-04-22T02:59:05.815Z,4.03
2019-04-22T03:01:30.051Z,3.60
2019-04-22T03:09:03.780Z,3.50
2019-04-22T03:11:51.823Z,3.33
2019-04-22T03:14:08.748Z,3.87
2019-04-22T03:21:46.646Z,3.63
2019-04-22T03:26:48.576Z,3.80
2019-04-22T03:30:36.520Z,3.87
2019-04-22T03:37:52.634Z,4.13
2019-04-22T03:40:28.228Z,3.83
2019-04-22T03:42:51.915Z,3.73
2019-04-22T03:50:22.652Z,3.60
2019-04-22T03:55:23.042Z,3.90
2019-04-22T04:03:04.939Z,3.67
2019-04-22T04:08:14.708Z,4.03
2019-04-22T04:13:08.247Z,3.97
2019-04-22T04:18:11.415Z,4.30
2019-04-22T04:28:47.696Z,4.23
2019-04-22T04:31:09.623Z,3.47
2019-04-22T04:33:28.869Z,4.13
2019-04-22T04:36:02.482Z,3.80
2019-04-22T04:38:43.005Z,4.30
2019-04-22T04:43:46.552Z,3.63
2019-04-22T04:46:16.012Z,3.70
2019-04-22T04:51:23.919Z,3.93
2019-04-22T04:54:12.596Z,4.70
2019-04-22T05:06:34.684Z,3.97
2019-04-22T05:09:11.345Z,3.80
2019-04-22T05:14:09.359Z,4.30
2019-04-22T05:16:42.510Z,4.37
2019-04-22T05:19:07.432Z,4.40
2019-04-22T05:21:40.191Z,4.17
2019-04-22T05:24:19.520Z,4.90
2019-04-22T05:29:17.009Z,4.23
2019-04-22T05:31:52.310Z,4.47
2019-04-22T05:39:21.314Z,5.07
2019-04-22T05:41:59.368Z,5.17
2019-04-22T05:44:30.906Z,4.10
2019-04-22T05:47:01.385Z,4.10
2019-04-22T05:49:28.984Z,4.00
2019-04-22T05:52:06.925Z,4.00
2019-04-22T05:54:38.618Z,4.53
2019-04-22T05:57:14.427Z,3.97
2019-04-22T05:59:45.737Z,4.83
2019-04-22T06:02:25.436Z,4.83
2019-04-22T06:04:55.138Z,4.83
2019-04-22T06:07:22.820Z,4.10
2019-04-22T06:10:03.036Z,3.90
2019-04-22T06:12:20.879Z,3.97
2019-04-22T06:15:01.579Z,3.90
2019-04-22T06:17:37.801Z,4.37
2019-04-22T06:20:02.197Z,4.20
2019-04-22T06:22:43.205Z,3.70
2019-04-22T06:25:23.026Z,3.93
2019-04-22T06:27:52.445Z,4.03
2019-04-22T06:30:21.843Z,4.50
2019-04-22T06:32:51.855Z,4.40
2019-04-22T06:35:29.744Z,4.10
2019-04-22T06:38:22.794Z,3.90
2019-04-22T06:40:31.626Z,4.13
2019-04-22T06:43:05.136Z,3.97
2019-04-22T06:45:35.359Z,3.70
2019-04-22T06:48:07.009Z,3.50
2019-04-22T06:50:43.509Z,3.40
2019-04-22T06:53:13.178Z,3.63
2019-04-22T06:55:45.886Z,4.20
2019-04-22T06:58:18.011Z,3.73
2019-04-22T07:00:46.234Z,3.93
2019-04-22T07:05:51.810Z,3.50
2019-04-22T07:10:56.333Z,3.40
2019-04-22T07:18:35.994Z,3.00
2019-04-22T07:21:06.589Z,3.10
2019-04-22T07:23:54.014Z,3.40
2019-04-22T07:26:18.283Z,3.17
2019-04-22T07:29:04.097Z,3.27
2019-04-22T07:31:30.527Z,3.40
2019-04-22T07:34:15.299Z,3.67
2019-04-22T07:39:13.565Z,3.30
2019-04-22T07:41:51.294Z,3.47
2019-04-22T07:44:48.487Z,3.40
2019-04-22T07:47:13.935Z,3.37
2019-04-22T07:49:41.174Z,3.47
2019-04-22T07:52:10.083Z,3.33
2019-04-22T07:54:45.019Z,3.60
2019-04-22T07:57:20.253Z,3.20
2019-04-22T07:59:55.914Z,3.03
2019-04-22T08:02:23.646Z,3.20
2019-04-22T08:07:43.105Z,3.30
2019-04-22T08:10:18.596Z,3.10
2019-04-22T08:12:47.377Z,3.17
2019-04-22T08:15:21.370Z,2.90
2019-04-22T08:20:25.147Z,2.97
2019-04-22T08:23:04.872Z,2.80
2019-04-22T08:25:33.210Z,2.80
2019-04-22T08:28:10.650Z,3.00
2019-04-22T08:33:16.067Z,2.83
2019-04-22T08:38:24.161Z,2.77
2019-04-22T08:41:33.137Z,2.60
2019-04-22T08:43:57.460Z,2.90
2019-04-22T08:46:36.504Z,2.70
2019-04-22T08:49:02.144Z,2.87
2019-04-22T08:51:37.715Z,3.00
2019-04-22T08:54:14.981Z,2.30
2019-04-22T08:59:31.571Z,2.43
2019-04-22T09:01:59.647Z,2.47
2019-04-22T09:04:43.129Z,2.37
2019-04-22T09:07:20.310Z,2.23
2019-04-22T09:12:23.823Z,2.33
2019-04-22T09:15:02.467Z,2.47
2019-04-22T09:17:35.007Z,2.50
2019-04-22T09:20:00.121Z,2.10
2019-04-22T09:22:27.683Z,2.20
2019-04-22T09:25:03.707Z,2.30
2019-04-22T09:30:13.408Z,2.20
2019-04-22T09:32:45.170Z,2.10
2019-04-22T09:35:15.986Z,2.30
2019-04-22T09:40:35.094Z,2.13
2019-04-22T09:43:02.462Z,2.30
2019-04-22T09:45:21.399Z,2.30
2019-04-22T09:48:03.109Z,2.90
2019-04-22T09:50:44.144Z,2.17
2019-04-22T09:53:15.688Z,2.00
2019-04-22T09:55:43.035Z,2.17
2019-04-22T09:58:20.719Z,2.30
2019-04-22T10:03:56.242Z,2.50
2019-04-22T10:06:27.835Z,2.53
2019-04-22T10:09:26.310Z,2.97
2019-04-22T10:11:42.214Z,2.30
2019-04-22T10:14:05.653Z,2.37
2019-04-22T10:16:37.502Z,2.30
2019-04-22T10:19:11.166Z,2.70
2019-04-22T10:24:13.833Z,2.63
2019-04-22T10:29:41.619Z,2.90
2019-04-22T10:31:54.571Z,2.70
2019-04-22T10:34:28.945Z,2.57
2019-04-22T10:36:52.699Z,3.00
2019-04-22T10:39:18.328Z,2.70
2019-04-22T10:41:52.790Z,2.80
2019-04-22T10:44:24.244Z,2.80
2019-04-22T10:46:56.023Z,3.00
2019-04-22T10:49:26.882Z,2.70
2019-04-22T10:52:43.559Z,2.50
2019-04-22T10:55:31.792Z,2.77
2019-04-22T10:58:08.634Z,2.90
2019-04-22T11:00:39.730Z,2.90
2019-04-22T11:03:16.097Z,2.87
2019-04-22T11:05:48.399Z,2.83
2019-04-22T11:08:31.982Z,3.10
2019-04-22T11:11:12.245Z,2.70
2019-04-22T11:13:28.314Z,3.10
2019-04-22T11:16:00.547Z,3.07
2019-04-22T11:18:36.093Z,2.67
2019-04-22T11:21:07.498Z,3.03
2019-04-22T11:23:42.586Z,2.80
2019-04-22T11:26:16.047Z,2.80
2019-04-22T11:28:49.631Z,2.87
2019-04-22T11:31:22.102Z,2.70
2019-04-22T11:33:54.450Z,3.13
2019-04-22T11:36:45.037Z,3.73
2019-04-22T11:39:17.196Z,2.90
2019-04-22T11:41:47.825Z,3.13
2019-04-22T11:44:23.526Z,2.90
2019-04-22T11:46:54.119Z,2.90
2019-04-22T11:49:25.861Z,2.90
2019-04-22T11:51:58.947Z,3.50
2019-04-22T11:54:30.596Z,3.20
2019-04-22T11:57:05.462Z,2.80
2019-04-22T11:59:40.912Z,3.17
2019-04-22T12:02:17.710Z,3.40
2019-04-22T12:04:49.745Z,3.30
2019-04-22T12:07:26.727Z,3.33
2019-04-22T12:09:59.593Z,3.40
2019-04-22T12:12:34.545Z,3.60
2019-04-22T12:15:04.181Z,2.93
2019-04-22T12:17:36.352Z,3.30
2019-04-22T12:20:10.472Z,3.10
2019-04-22T12:22:42.925Z,3.03
2019-04-22T12:25:29.234Z,3.07
2019-04-22T12:27:47.272Z,2.90
2019-04-22T12:30:23.489Z,3.03
2019-04-22T12:32:54.710Z,3.10
2019-04-22T12:35:26.266Z,2.90
2019-04-22T12:38:01.470Z,2.90
2019-04-22T12:40:42.451Z,3.43
2019-04-22T12:43:09.906Z,3.20
2019-04-22T12:45:40.434Z,3.77
2019-04-22T12:48:12.827Z,3.30
2019-04-22T12:50:45.904Z,3.20
2019-04-22T12:53:28.011Z,2.90
2019-04-22T12:55:55.215Z,3.17
2019-04-22T12:58:25.584Z,3.00
2019-04-22T13:01:03.664Z,3.00
2019-04-22T13:03:36.144Z,2.63
2019-04-22T13:06:07.992Z,3.20
2019-04-22T13:08:41.516Z,3.13
2019-04-22T13:11:16.572Z,2.57
2019-04-22T13:13:47.085Z,3.20
2019-04-22T13:16:38.739Z,2.70
2019-04-22T13:19:12.925Z,2.77
2019-04-22T13:21:42.725Z,2.80
2019-04-22T13:24:13.493Z,2.90
2019-04-22T13:26:50.882Z,2.80
2019-04-22T13:29:21.362Z,2.73
2019-04-22T13:31:55.161Z,2.87
2019-04-22T13:34:34.798Z,2.63
2019-04-22T13:37:03.324Z,2.43
2019-04-22T13:39:34.828Z,3.03
2019-04-22T13:42:12.495Z,2.73
2019-04-22T13:44:39.694Z,2.23
2019-04-22T13:47:29.814Z,2.43
2019-04-22T13:50:24.906Z,2.63
2019-04-22T13:52:53.603Z,2.50
2019-04-22T13:55:16.234Z,2.23
2019-04-22T13:57:42.561Z,2.47
2019-04-22T14:00:00.708Z,2.63
2019-04-22T14:02:44.628Z,2.77
2019-04-22T14:05:17.017Z,2.70
2019-04-22T14:07:48.723Z,2.70
2019-04-22T14:10:22.713Z,2.63
2019-04-22T14:13:21.736Z,2.57
2019-04-22T14:15:56.933Z,2.57
2019-04-22T14:18:31.180Z,2.50
2019-04-22T14:21:02.871Z,2.70
2019-04-22T14:23:38.482Z,2.40
2019-04-22T14:26:09.559Z,2.50
2019-04-22T14:28:53.431Z,2.60
2019-04-22T14:31:26.707Z,2.37
2019-04-22T14:34:01.828Z,2.63
2019-04-22T14:36:35.370Z,2.10
2019-04-22T14:39:10.172Z,2.40
2019-04-22T14:41:55.982Z,2.07
2019-04-22T14:47:19.940Z,2.60
2019-04-22T14:50:14.044Z,2.30
2019-04-22T14:52:46.327Z,2.10
2019-04-22T14:55:05.065Z,2.13
2019-04-22T14:57:27.775Z,2.10
2019-04-22T14:59:58.108Z,1.93
2019-04-22T15:02:33.879Z,4.77
2019-04-22T15:05:03.856Z,1.80
2019-04-22T15:07:35.153Z,2.20
2019-04-22T15:10:44.033Z,2.17
2019-04-22T15:17:18.589Z,1.77
2019-04-22T15:20:17.632Z,1.90
2019-04-22T15:22:50.629Z,1.77
2019-04-22T15:25:22.909Z,2.03
2019-04-22T15:27:57.431Z,1.70
2019-04-22T15:30:29.651Z,2.13
2019-04-22T15:33:01.187Z,1.90
2019-04-22T15:35:33.785Z,2.10
2019-04-22T15:38:05.324Z,1.90
2019-04-22T15:40:36.747Z,1.80
2019-04-22T15:43:08.688Z,1.90
2019-04-22T15:45:41.268Z,2.13
2019-04-22T15:48:36.122Z,2.13
2019-04-22T15:51:07.099Z,1.80
2019-04-22T15:53:39.942Z,2.20
2019-04-22T15:56:10.653Z,2.00
2019-04-22T15:58:41.863Z,2.10
2019-04-22T16:01:28.160Z,1.90
2019-04-22T16:03:54.899Z,1.90
2019-04-22T16:06:26.213Z,2.23
2019-04-22T16:09:02.520Z,2.70
2019-04-22T16:11:38.072Z,2.10
2019-04-22T16:14:10.465Z,2.17
2019-04-22T16:16:42.930Z,2.10
2019-04-22T16:19:35.124Z,2.03
2019-04-22T16:22:14.890Z,2.27
2019-04-22T16:27:40.529Z,2.50
2019-04-22T16:30:17.235Z,2.83
2019-04-22T16:32:55.043Z,2.67
2019-04-22T16:35:32.754Z,2.23
2019-04-22T16:38:02.258Z,2.50
2019-04-22T16:40:42.958Z,2.40
2019-04-22T16:43:14.233Z,2.50
2019-04-22T16:45:47.701Z,2.43
2019-04-22T16:48:33.715Z,2.93
2019-04-22T16:51:06.210Z,2.40
2019-04-22T16:53:37.144Z,2.40
2019-04-22T16:56:11.324Z,2.50
2019-04-22T16:58:43.022Z,3.50
2019-04-22T17:01:38.690Z,3.87
2019-04-22T17:04:20.901Z,2.37
2019-04-22T17:06:51.435Z,3.00
2019-04-22T17:09:34.362Z,2.80
2019-04-22T17:12:09.878Z,2.80
2019-04-22T17:15:16.249Z,2.83
2019-04-22T17:17:45.321Z,3.40
2019-04-22T17:20:17.335Z,3.17
2019-04-22T17:22:57.751Z,3.03
2019-04-22T17:25:34.596Z,3.10
2019-04-22T17:28:05.865Z,4.10
2019-04-22T17:30:36.611Z,3.00
2019-04-22T17:33:23.048Z,3.87
2019-04-22T17:35:57.033Z,2.67
2019-04-22T17:38:42.784Z,3.30
2019-04-22T17:41:20.887Z,3.17
2019-04-22T17:44:09.339Z,2.63
2019-04-22T17:46:36.124Z,2.63
2019-04-22T17:49:50.620Z,2.57
2019-04-22T17:52:21.079Z,2.60
2019-04-22T17:54:50.170Z,2.60
2019-04-22T17:57:31.234Z,2.63
2019-04-22T17:59:56.738Z,2.97
2019-04-22T18:02:25.109Z,2.90
2019-04-22T18:04:50.793Z,2.57
2019-04-22T18:07:47.552Z,2.93
2019-04-22T18:10:37.583Z,2.70
2019-04-22T18:13:02.030Z,2.83
2019-04-22T18:15:37.520Z,2.70
2019-04-22T18:18:20.231Z,3.03
2019-04-22T18:20:41.152Z,2.53
2019-04-22T18:23:20.086Z,2.63
2019-04-22T18:26:05.366Z,2.90
2019-04-22T18:28:45.317Z,2.40
2019-04-22T18:31:13.912Z,3.00
2019-04-22T18:33:48.944Z,2.80
2019-04-22T18:36:19.380Z,2.70
2019-04-22T18:39:02.841Z,2.70
2019-04-22T18:41:24.827Z,2.60
2019-04-22T18:44:04.316Z,2.40
2019-04-22T18:46:50.931Z,2.67
2019-04-22T18:49:16.566Z,2.87
2019-04-22T18:54:56.941Z,2.47
2019-04-22T18:57:45.111Z,2.40
2019-04-22T19:00:12.682Z,3.00
2019-04-22T19:02:54.087Z,2.90
2019-04-22T19:05:34.699Z,2.80
2019-04-22T19:08:22.831Z,2.80
2019-04-22T19:11:02.482Z,2.87
2019-04-22T19:13:51.274Z,2.53
2019-04-22T19:16:19.917Z,2.60
2019-04-22T19:18:41.791Z,2.50
2019-04-22T19:21:25.607Z,2.67
2019-04-22T19:24:12.147Z,2.50
2019-04-22T19:29:18.671Z,2.90
2019-04-22T19:31:56.965Z,2.50
2019-04-22T19:34:31.798Z,2.77
2019-04-22T19:37:05.637Z,2.87
2019-04-22T19:39:31.017Z,2.60
2019-04-22T19:42:20.571Z,3.60
2019-04-22T19:44:44.645Z,2.77
2019-04-22T19:49:58.389Z,3.43
2019-04-22T19:52:28.772Z,3.50
2019-04-22T19:55:07.648Z,3.90
2019-04-22T19:57:34.542Z,3.60
2019-04-22T20:00:24.319Z,3.97
2019-04-22T20:03:36.456Z,3.90
2019-04-22T20:06:15.474Z,3.80
2019-04-22T20:09:06.017Z,4.40
2019-04-22T20:11:41.777Z,4.13
2019-04-22T20:14:12.547Z,3.97
2019-04-22T20:16:41.418Z,4.23
2019-04-22T20:19:38.266Z,4.53
2019-04-22T20:22:02.904Z,3.53
2019-04-22T20:24:27.760Z,4.07
2019-04-22T20:27:43.159Z,4.00
2019-04-22T20:30:04.736Z,4.40
2019-04-22T20:32:37.694Z,4.33
2019-04-22T20:35:15.738Z,4.50
2019-04-22T20:37:54.840Z,5.30
2019-04-22T20:40:25.406Z,5.10
2019-04-22T20:43:01.441Z,5.00
2019-04-22T20:45:36.443Z,5.37
2019-04-22T20:47:59.755Z,6.40
2019-04-22T20:50:41.297Z,5.90
2019-04-22T20:53:28.000Z,6.30
2019-04-22T20:55:57.116Z,5.57
2019-04-22T20:58:33.001Z,6.03
2019-04-22T21:00:56.909Z,6.73
2019-04-22T21:03:27.336Z,6.97
2019-04-22T21:06:14.991Z,6.60
2019-04-22T21:08:59.121Z,6.97
2019-04-22T21:11:34.046Z,7.40
2019-04-22T21:14:13.296Z,7.27
2019-04-22T21:16:56.387Z,7.63
2019-04-22T21:19:41.777Z,7.60
2019-04-22T21:22:07.937Z,8.13
2019-04-22T21:24:43.739Z,7.37
2019-04-22T21:27:28.397Z,7.57
2019-04-22T21:29:55.991Z,7.40
2019-04-22T21:32:34.427Z,6.60
2019-04-22T21:35:31.899Z,6.93
2019-04-22T21:38:04.516Z,6.37
2019-04-22T21:40:28.343Z,5.93
2019-04-22T21:43:08.863Z,6.00
2019-04-22T21:45:35.094Z,6.63
2019-04-22T21:48:26.463Z,7.23
2019-04-22T21:53:31.595Z,5.77
2019-04-22T21:56:11.418Z,5.33
2019-04-22T21:58:56.119Z,5.73
2019-04-22T22:01:50.054Z,6.00
2019-04-22T22:04:18.799Z,5.50
2019-04-22T22:06:40.444Z,5.47
2019-04-22T22:09:22.152Z,5.47
2019-04-22T22:12:10.384Z,5.90
2019-04-22T22:15:00.435Z,4.87
2019-04-22T22:17:31.246Z,4.87
2019-04-22T22:19:57.918Z,5.67
2019-04-22T22:25:17.926Z,4.67
2019-04-22T22:27:46.620Z,5.60
2019-04-22T22:30:42.835Z,5.37
2019-04-22T22:33:03.594Z,5.17
2019-04-22T22:35:36.110Z,4.97
2019-04-22T22:38:09.388Z,4.67
2019-04-22T22:40:26.117Z,4.80
2019-04-22T22:42:55.886Z,4.93
2019-04-22T22:45:33.839Z,4.93
2019-04-22T22:50:55.050Z,4.33
2019-04-22T22:53:34.007Z,4.90
2019-04-22T22:55:56.214Z,5.27
2019-04-22T22:58:34.062Z,5.10
2019-04-22T23:01:06.466Z,5.40
2019-04-22T23:03:51.482Z,4.93
2019-04-22T23:06:21.285Z,4.70
2019-04-22T23:08:49.445Z,4.47
2019-04-22T23:11:20.923Z,4.63
2019-04-22T23:13:54.220Z,4.90
2019-04-22T23:16:15.278Z,4.87
2019-04-22T23:18:55.390Z,4.53
2019-04-22T23:21:32.821Z,4.60
2019-04-22T23:24:16.078Z,4.43
2019-04-22T23:26:53.986Z,4.77
2019-04-22T23:29:39.553Z,4.07
2019-04-22T23:32:18.516Z,4.23
2019-04-22T23:35:00.295Z,4.10
2019-04-22T23:37:27.732Z,4.50
2019-04-22T23:40:16.226Z,4.93
2019-04-22T23:42:53.079Z,4.40
2019-04-22T23:45:22.544Z,4.53
2019-04-22T23:47:43.178Z,4.33
2019-04-22T23:50:26.103Z,4.90
2019-04-22T23:52:58.117Z,4.27
2019-04-22T23:55:34.059Z,4.47
2019-04-22T23:58:03.486Z,4.70
